Terminal Aerodrome Forecast
Issued by NWS Cleveland, OH

Home | Current Version | Previous Version | Graphics & Text | Print | Product List | Glossary On
Versions: 1 2 3 4 5 6 7 8 9 10 11 12 13 14 15
172
FTUS41 KCLE 191730
TAFCAK
TAF
KCAK 191730Z 1918/2018 28006KT P6SM SCT045
     FM200200 VRB03KT P6SM BKN200
     FM200800 00000KT 4SM BR SCT040 BKN150
      TEMPO 2009/2012 1 1/2SM BR
     FM201500 22008KT 6SM HZ BKN040=

USA.gov is the U.S. government's official web portal to all federal, state and local government web resources and services.